sensor_id;sensor_type;location;lat;lon;timestamp;P1;durP1;ratioP1;P2;durP2;ratioP2
15776;SDS011;7989;51.198;6.676;2024-03-06T00:00:02;23.63;;;19.90;;
15776;SDS011;7989;51.198;6.676;2024-03-06T00:02:30;28.52;;;23.48;;
15776;SDS011;7989;51.198;6.676;2024-03-06T00:04:57;22.80;;;20.33;;
15776;SDS011;7989;51.198;6.676;2024-03-06T00:07:24;19.63;;;17.67;;
15776;SDS011;7989;51.198;6.676;2024-03-06T00:09:51;17.40;;;15.80;;
15776;SDS011;7989;51.198;6.676;2024-03-06T00:12:19;19.70;;;17.63;;
15776;SDS011;7989;51.198;6.676;2024-03-06T00:14:45;20.58;;;18.45;;
15776;SDS011;7989;51.198;6.676;2024-03-06T00:17:14;18.23;;;16.45;;
15776;SDS011;7989;51.198;6.676;2024-03-06T00:19:41;19.13;;;17.20;;
15776;SDS011;7989;51.198;6.676;2024-03-06T00:22:09;19.55;;;17.52;;
15776;SDS011;7989;51.198;6.676;2024-03-06T00:24:36;18.27;;;16.60;;
15776;SDS011;7989;51.198;6.676;2024-03-06T00:27:03;19.67;;;17.67;;
15776;SDS011;7989;51.198;6.676;2024-03-06T00:29:30;22.38;;;19.92;;
15776;SDS011;7989;51.198;6.676;2024-03-06T00:31:57;20.58;;;18.38;;
15776;SDS011;7989;51.198;6.676;2024-03-06T00:34:25;18.55;;;16.67;;
15776;SDS011;7989;51.198;6.676;2024-03-06T00:36:52;19.92;;;18.02;;
15776;SDS011;7989;51.198;6.676;2024-03-06T00:39:20;18.98;;;17.13;;
15776;SDS011;7989;51.198;6.676;2024-03-06T00:41:46;17.52;;;15.82;;
15776;SDS011;7989;51.198;6.676;2024-03-06T00:44:15;17.23;;;15.60;;
15776;SDS011;7989;51.198;6.676;2024-03-06T00:46:42;15.88;;;14.32;;
15776;SDS011;7989;51.198;6.676;2024-03-06T00:49:09;16.83;;;15.32;;
15776;SDS011;7989;51.198;6.676;2024-03-06T00:51:37;16.58;;;15.07;;
15776;SDS011;7989;51.198;6.676;2024-03-06T00:54:04;18.70;;;16.73;;
15776;SDS011;7989;51.198;6.676;2024-03-06T00:56:31;19.65;;;17.65;;
15776;SDS011;7989;51.198;6.676;2024-03-06T00:58:58;17.45;;;15.65;;
15776;SDS011;7989;51.198;6.676;2024-03-06T01:01:24;17.92;;;16.17;;
15776;SDS011;7989;51.198;6.676;2024-03-06T01:03:52;16.65;;;15.15;;
15776;SDS011;7989;51.198;6.676;2024-03-06T01:06:20;17.08;;;15.30;;
15776;SDS011;7989;51.198;6.676;2024-03-06T01:08:48;17.90;;;16.13;;
15776;SDS011;7989;51.198;6.676;2024-03-06T01:11:15;19.52;;;17.60;;
15776;SDS011;7989;51.198;6.676;2024-03-06T01:13:41;20.05;;;18.05;;
15776;SDS011;7989;51.198;6.676;2024-03-06T01:16:08;18.58;;;16.85;;
15776;SDS011;7989;51.198;6.676;2024-03-06T01:18:35;22.23;;;20.13;;
15776;SDS011;7989;51.198;6.676;2024-03-06T01:21:02;18.70;;;16.85;;
15776;SDS011;7989;51.198;6.676;2024-03-06T01:23:29;20.23;;;18.10;;
15776;SDS011;7989;51.198;6.676;2024-03-06T01:25:57;18.98;;;17.17;;
15776;SDS011;7989;51.198;6.676;2024-03-06T01:28:24;19.20;;;17.38;;
15776;SDS011;7989;51.198;6.676;2024-03-06T01:30:51;18.77;;;16.88;;
15776;SDS011;7989;51.198;6.676;2024-03-06T01:33:18;20.23;;;18.13;;
15776;SDS011;7989;51.198;6.676;2024-03-06T01:35:44;19.08;;;17.27;;
15776;SDS011;7989;51.198;6.676;2024-03-06T01:38:11;17.63;;;15.82;;
15776;SDS011;7989;51.198;6.676;2024-03-06T01:40:42;16.17;;;14.68;;
15776;SDS011;7989;51.198;6.676;2024-03-06T01:43:18;18.23;;;16.42;;
15776;SDS011;7989;51.198;6.676;2024-03-06T01:45:47;16.50;;;14.85;;
15776;SDS011;7989;51.198;6.676;2024-03-06T01:48:14;17.65;;;15.90;;
15776;SDS011;7989;51.198;6.676;2024-03-06T01:50:41;19.05;;;16.95;;
15776;SDS011;7989;51.198;6.676;2024-03-06T01:53:08;15.98;;;14.48;;
15776;SDS011;7989;51.198;6.676;2024-03-06T01:55:36;16.30;;;14.80;;
15776;SDS011;7989;51.198;6.676;2024-03-06T01:58:03;16.45;;;14.93;;
15776;SDS011;7989;51.198;6.676;2024-03-06T02:00:32;16.25;;;14.60;;
15776;SDS011;7989;51.198;6.676;2024-03-06T02:03:00;16.58;;;14.98;;
15776;SDS011;7989;51.198;6.676;2024-03-06T02:05:27;20.33;;;18.15;;
15776;SDS011;7989;51.198;6.676;2024-03-06T02:07:56;20.00;;;18.00;;
15776;SDS011;7989;51.198;6.676;2024-03-06T02:10:24;18.15;;;16.27;;
15776;SDS011;7989;51.198;6.676;2024-03-06T02:12:52;20.95;;;18.85;;
15776;SDS011;7989;51.198;6.676;2024-03-06T02:15:19;17.98;;;16.23;;
15776;SDS011;7989;51.198;6.676;2024-03-06T02:17:47;22.17;;;19.83;;
15776;SDS011;7989;51.198;6.676;2024-03-06T02:20:14;17.92;;;16.05;;
15776;SDS011;7989;51.198;6.676;2024-03-06T02:22:42;16.50;;;14.90;;
15776;SDS011;7989;51.198;6.676;2024-03-06T02:25:10;18.58;;;16.65;;
15776;SDS011;7989;51.198;6.676;2024-03-06T02:27:37;20.27;;;18.17;;
15776;SDS011;7989;51.198;6.676;2024-03-06T02:30:05;20.65;;;18.60;;
15776;SDS011;7989;51.198;6.676;2024-03-06T02:32:33;21.63;;;19.45;;
15776;SDS011;7989;51.198;6.676;2024-03-06T02:35:00;18.35;;;16.52;;
15776;SDS011;7989;51.198;6.676;2024-03-06T02:37:28;19.20;;;17.30;;
15776;SDS011;7989;51.198;6.676;2024-03-06T02:39:56;19.70;;;17.58;;
15776;SDS011;7989;51.198;6.676;2024-03-06T02:42:24;17.13;;;15.27;;
15776;SDS011;7989;51.198;6.676;2024-03-06T02:44:52;16.52;;;15.02;;
15776;SDS011;7989;51.198;6.676;2024-03-06T02:47:19;17.15;;;15.35;;
15776;SDS011;7989;51.198;6.676;2024-03-06T02:49:46;16.30;;;14.38;;
15776;SDS011;7989;51.198;6.676;2024-03-06T02:52:13;16.70;;;14.98;;
15776;SDS011;7989;51.198;6.676;2024-03-06T02:54:40;18.25;;;15.18;;
15776;SDS011;7989;51.198;6.676;2024-03-06T02:57:08;16.50;;;14.85;;
15776;SDS011;7989;51.198;6.676;2024-03-06T02:59:35;16.55;;;14.85;;
15776;SDS011;7989;51.198;6.676;2024-03-06T03:02:02;18.55;;;16.58;;
15776;SDS011;7989;51.198;6.676;2024-03-06T03:04:29;17.65;;;15.80;;
15776;SDS011;7989;51.198;6.676;2024-03-06T03:06:56;16.65;;;15.02;;
15776;SDS011;7989;51.198;6.676;2024-03-06T03:09:23;18.85;;;16.98;;
15776;SDS011;7989;51.198;6.676;2024-03-06T03:11:50;20.73;;;18.65;;
15776;SDS011;7989;51.198;6.676;2024-03-06T03:14:18;18.08;;;16.33;;
15776;SDS011;7989;51.198;6.676;2024-03-06T03:16:45;17.40;;;15.48;;
15776;SDS011;7989;51.198;6.676;2024-03-06T03:19:11;17.35;;;15.65;;
15776;SDS011;7989;51.198;6.676;2024-03-06T03:21:40;16.50;;;14.98;;
15776;SDS011;7989;51.198;6.676;2024-03-06T03:24:09;18.08;;;16.38;;
15776;SDS011;7989;51.198;6.676;2024-03-06T03:26:36;16.25;;;14.75;;
15776;SDS011;7989;51.198;6.676;2024-03-06T03:29:03;18.17;;;16.48;;
15776;SDS011;7989;51.198;6.676;2024-03-06T03:31:31;17.15;;;15.50;;
15776;SDS011;7989;51.198;6.676;2024-03-06T03:33:58;17.95;;;16.25;;
15776;SDS011;7989;51.198;6.676;2024-03-06T03:36:25;17.17;;;15.68;;
15776;SDS011;7989;51.198;6.676;2024-03-06T03:38:51;18.65;;;16.33;;
15776;SDS011;7989;51.198;6.676;2024-03-06T03:41:19;16.30;;;14.68;;
15776;SDS011;7989;51.198;6.676;2024-03-06T03:43:46;17.17;;;15.38;;
15776;SDS011;7989;51.198;6.676;2024-03-06T03:46:12;18.88;;;17.08;;
15776;SDS011;7989;51.198;6.676;2024-03-06T03:48:40;18.35;;;16.75;;
15776;SDS011;7989;51.198;6.676;2024-03-06T03:51:08;20.15;;;18.15;;
15776;SDS011;7989;51.198;6.676;2024-03-06T03:53:35;17.63;;;15.93;;
15776;SDS011;7989;51.198;6.676;2024-03-06T03:56:02;18.90;;;17.00;;
15776;SDS011;7989;51.198;6.676;2024-03-06T03:58:29;18.25;;;16.55;;
15776;SDS011;7989;51.198;6.676;2024-03-06T04:00:56;21.85;;;19.75;;
15776;SDS011;7989;51.198;6.676;2024-03-06T04:03:22;24.15;;;21.83;;
15776;SDS011;7989;51.198;6.676;2024-03-06T04:05:51;24.75;;;22.38;;
15776;SDS011;7989;51.198;6.676;2024-03-06T04:08:18;22.77;;;20.55;;
15776;SDS011;7989;51.198;6.676;2024-03-06T04:10:44;24.13;;;21.77;;
15776;SDS011;7989;51.198;6.676;2024-03-06T04:13:12;24.83;;;22.42;;
15776;SDS011;7989;51.198;6.676;2024-03-06T04:15:39;24.95;;;22.42;;
15776;SDS011;7989;51.198;6.676;2024-03-06T04:18:06;23.33;;;21.27;;
15776;SDS011;7989;51.198;6.676;2024-03-06T04:20:32;22.90;;;20.80;;
15776;SDS011;7989;51.198;6.676;2024-03-06T04:23:01;21.95;;;19.70;;
15776;SDS011;7989;51.198;6.676;2024-03-06T04:25:28;21.80;;;19.60;;
15776;SDS011;7989;51.198;6.676;2024-03-06T04:27:54;21.23;;;19.13;;
15776;SDS011;7989;51.198;6.676;2024-03-06T04:30:21;22.20;;;19.90;;
15776;SDS011;7989;51.198;6.676;2024-03-06T04:32:48;25.27;;;22.42;;
15776;SDS011;7989;51.198;6.676;2024-03-06T04:35:15;21.75;;;19.55;;
15776;SDS011;7989;51.198;6.676;2024-03-06T04:37:42;24.27;;;21.75;;
15776;SDS011;7989;51.198;6.676;2024-03-06T04:40:10;21.92;;;19.77;;
15776;SDS011;7989;51.198;6.676;2024-03-06T04:42:40;22.73;;;20.52;;
15776;SDS011;7989;51.198;6.676;2024-03-06T04:45:09;22.83;;;20.60;;
15776;SDS011;7989;51.198;6.676;2024-03-06T04:47:37;25.42;;;22.40;;
15776;SDS011;7989;51.198;6.676;2024-03-06T04:50:07;23.27;;;20.90;;
15776;SDS011;7989;51.198;6.676;2024-03-06T04:52:35;23.67;;;21.38;;
15776;SDS011;7989;51.198;6.676;2024-03-06T04:55:02;23.58;;;21.30;;
15776;SDS011;7989;51.198;6.676;2024-03-06T04:57:31;23.48;;;21.20;;
15776;SDS011;7989;51.198;6.676;2024-03-06T04:59:57;24.55;;;22.25;;
15776;SDS011;7989;51.198;6.676;2024-03-06T05:02:24;22.80;;;20.48;;
15776;SDS011;7989;51.198;6.676;2024-03-06T05:04:51;23.10;;;20.90;;
15776;SDS011;7989;51.198;6.676;2024-03-06T05:07:18;21.38;;;19.48;;
15776;SDS011;7989;51.198;6.676;2024-03-06T05:09:45;22.67;;;20.42;;
15776;SDS011;7989;51.198;6.676;2024-03-06T05:12:12;21.73;;;19.67;;
15776;SDS011;7989;51.198;6.676;2024-03-06T05:14:40;20.85;;;18.88;;
15776;SDS011;7989;51.198;6.676;2024-03-06T05:17:07;22.73;;;20.52;;
15776;SDS011;7989;51.198;6.676;2024-03-06T05:19:35;21.67;;;19.77;;
15776;SDS011;7989;51.198;6.676;2024-03-06T05:22:02;25.30;;;22.77;;
15776;SDS011;7989;51.198;6.676;2024-03-06T05:24:30;28.27;;;25.40;;
15776;SDS011;7989;51.198;6.676;2024-03-06T05:26:57;29.23;;;26.35;;
15776;SDS011;7989;51.198;6.676;2024-03-06T05:29:24;30.10;;;27.00;;
15776;SDS011;7989;51.198;6.676;2024-03-06T05:31:52;31.55;;;28.20;;
15776;SDS011;7989;51.198;6.676;2024-03-06T05:34:20;28.10;;;25.20;;
15776;SDS011;7989;51.198;6.676;2024-03-06T05:36:47;28.98;;;25.92;;
15776;SDS011;7989;51.198;6.676;2024-03-06T05:39:14;24.88;;;22.38;;
15776;SDS011;7989;51.198;6.676;2024-03-06T05:41:42;23.85;;;21.52;;
15776;SDS011;7989;51.198;6.676;2024-03-06T05:44:09;26.88;;;24.20;;
15776;SDS011;7989;51.198;6.676;2024-03-06T05:46:37;25.27;;;22.85;;
15776;SDS011;7989;51.198;6.676;2024-03-06T05:49:05;26.70;;;23.95;;
15776;SDS011;7989;51.198;6.676;2024-03-06T05:51:32;25.08;;;22.58;;
15776;SDS011;7989;51.198;6.676;2024-03-06T05:53:59;24.17;;;21.67;;
15776;SDS011;7989;51.198;6.676;2024-03-06T05:56:26;26.23;;;23.63;;
15776;SDS011;7989;51.198;6.676;2024-03-06T05:58:53;29.27;;;26.25;;
15776;SDS011;7989;51.198;6.676;2024-03-06T06:01:20;33.50;;;29.08;;
15776;SDS011;7989;51.198;6.676;2024-03-06T06:03:47;26.13;;;23.38;;
15776;SDS011;7989;51.198;6.676;2024-03-06T06:06:15;26.80;;;23.80;;
15776;SDS011;7989;51.198;6.676;2024-03-06T06:08:44;24.30;;;21.80;;
15776;SDS011;7989;51.198;6.676;2024-03-06T06:11:11;26.02;;;23.33;;
15776;SDS011;7989;51.198;6.676;2024-03-06T06:13:38;24.52;;;22.23;;
15776;SDS011;7989;51.198;6.676;2024-03-06T06:16:05;25.13;;;22.65;;
15776;SDS011;7989;51.198;6.676;2024-03-06T06:18:32;22.95;;;20.55;;
15776;SDS011;7989;51.198;6.676;2024-03-06T06:20:59;24.55;;;22.02;;
15776;SDS011;7989;51.198;6.676;2024-03-06T06:23:27;23.25;;;20.92;;
15776;SDS011;7989;51.198;6.676;2024-03-06T06:25:54;23.33;;;21.02;;
15776;SDS011;7989;51.198;6.676;2024-03-06T06:28:21;25.75;;;23.08;;
15776;SDS011;7989;51.198;6.676;2024-03-06T06:30:49;21.75;;;19.65;;
15776;SDS011;7989;51.198;6.676;2024-03-06T06:33:17;23.85;;;21.65;;
15776;SDS011;7989;51.198;6.676;2024-03-06T06:35:44;24.40;;;22.10;;
15776;SDS011;7989;51.198;6.676;2024-03-06T06:38:11;25.08;;;22.42;;
15776;SDS011;7989;51.198;6.676;2024-03-06T06:40:39;23.67;;;21.08;;
15776;SDS011;7989;51.198;6.676;2024-03-06T06:43:06;25.50;;;23.10;;
15776;SDS011;7989;51.198;6.676;2024-03-06T06:45:33;25.05;;;22.65;;
15776;SDS011;7989;51.198;6.676;2024-03-06T06:48:03;26.50;;;23.77;;
15776;SDS011;7989;51.198;6.676;2024-03-06T06:50:30;28.35;;;24.83;;
15776;SDS011;7989;51.198;6.676;2024-03-06T06:52:58;27.10;;;24.52;;
15776;SDS011;7989;51.198;6.676;2024-03-06T06:55:25;24.35;;;21.92;;
15776;SDS011;7989;51.198;6.676;2024-03-06T06:57:53;24.70;;;21.52;;
15776;SDS011;7989;51.198;6.676;2024-03-06T07:00:20;21.83;;;19.63;;
15776;SDS011;7989;51.198;6.676;2024-03-06T07:02:48;22.13;;;20.00;;
15776;SDS011;7989;51.198;6.676;2024-03-06T07:05:15;29.45;;;24.05;;
15776;SDS011;7989;51.198;6.676;2024-03-06T07:07:43;28.13;;;25.23;;
15776;SDS011;7989;51.198;6.676;2024-03-06T07:10:10;28.60;;;25.63;;
15776;SDS011;7989;51.198;6.676;2024-03-06T07:12:36;25.77;;;23.20;;
15776;SDS011;7989;51.198;6.676;2024-03-06T07:15:05;29.08;;;25.17;;
15776;SDS011;7989;51.198;6.676;2024-03-06T07:17:32;28.27;;;25.08;;
15776;SDS011;7989;51.198;6.676;2024-03-06T07:19:59;28.73;;;25.65;;
15776;SDS011;7989;51.198;6.676;2024-03-06T07:22:26;31.35;;;26.05;;
15776;SDS011;7989;51.198;6.676;2024-03-06T07:24:53;28.60;;;24.10;;
15776;SDS011;7989;51.198;6.676;2024-03-06T07:27:20;30.95;;;27.88;;
15776;SDS011;7989;51.198;6.676;2024-03-06T07:29:47;31.20;;;28.27;;
15776;SDS011;7989;51.198;6.676;2024-03-06T07:32:15;27.30;;;24.80;;
15776;SDS011;7989;51.198;6.676;2024-03-06T07:34:42;22.45;;;20.13;;
15776;SDS011;7989;51.198;6.676;2024-03-06T07:37:09;23.02;;;20.58;;
15776;SDS011;7989;51.198;6.676;2024-03-06T07:39:36;21.75;;;19.55;;
15776;SDS011;7989;51.198;6.676;2024-03-06T07:42:04;21.55;;;19.63;;
15776;SDS011;7989;51.198;6.676;2024-03-06T07:44:31;22.25;;;20.10;;
15776;SDS011;7989;51.198;6.676;2024-03-06T07:46:57;23.25;;;20.80;;
15776;SDS011;7989;51.198;6.676;2024-03-06T07:49:26;30.05;;;20.98;;
15776;SDS011;7989;51.198;6.676;2024-03-06T07:51:52;25.50;;;20.65;;
15776;SDS011;7989;51.198;6.676;2024-03-06T07:54:19;21.73;;;19.73;;
15776;SDS011;7989;51.198;6.676;2024-03-06T07:56:47;23.33;;;20.40;;
15776;SDS011;7989;51.198;6.676;2024-03-06T07:59:14;26.30;;;19.25;;
15776;SDS011;7989;51.198;6.676;2024-03-06T08:01:43;36.22;;;20.23;;
15776;SDS011;7989;51.198;6.676;2024-03-06T08:04:09;22.27;;;20.27;;
15776;SDS011;7989;51.198;6.676;2024-03-06T08:06:37;20.20;;;18.17;;
15776;SDS011;7989;51.198;6.676;2024-03-06T08:09:04;32.63;;;20.33;;
15776;SDS011;7989;51.198;6.676;2024-03-06T08:11:31;23.10;;;20.90;;
15776;SDS011;7989;51.198;6.676;2024-03-06T08:13:59;26.10;;;20.70;;
15776;SDS011;7989;51.198;6.676;2024-03-06T08:16:27;23.20;;;21.00;;
15776;SDS011;7989;51.198;6.676;2024-03-06T08:18:55;23.13;;;20.92;;
15776;SDS011;7989;51.198;6.676;2024-03-06T08:21:22;24.20;;;21.83;;
15776;SDS011;7989;51.198;6.676;2024-03-06T08:23:50;22.52;;;20.42;;
15776;SDS011;7989;51.198;6.676;2024-03-06T08:26:18;23.67;;;21.48;;
15776;SDS011;7989;51.198;6.676;2024-03-06T08:28:45;23.08;;;20.77;;
15776;SDS011;7989;51.198;6.676;2024-03-06T08:31:12;23.40;;;21.08;;
15776;SDS011;7989;51.198;6.676;2024-03-06T08:33:38;23.58;;;21.33;;
15776;SDS011;7989;51.198;6.676;2024-03-06T08:36:06;23.45;;;21.00;;
15776;SDS011;7989;51.198;6.676;2024-03-06T08:38:33;23.25;;;20.85;;
15776;SDS011;7989;51.198;6.676;2024-03-06T08:41:01;22.27;;;20.17;;
15776;SDS011;7989;51.198;6.676;2024-03-06T08:43:27;22.02;;;20.02;;
15776;SDS011;7989;51.198;6.676;2024-03-06T08:45:54;24.63;;;22.33;;
15776;SDS011;7989;51.198;6.676;2024-03-06T08:48:21;23.00;;;20.80;;
15776;SDS011;7989;51.198;6.676;2024-03-06T08:50:48;22.80;;;20.75;;
15776;SDS011;7989;51.198;6.676;2024-03-06T08:53:15;23.98;;;21.77;;
15776;SDS011;7989;51.198;6.676;2024-03-06T08:55:42;24.38;;;21.45;;
15776;SDS011;7989;51.198;6.676;2024-03-06T08:58:10;25.45;;;23.05;;
15776;SDS011;7989;51.198;6.676;2024-03-06T09:00:39;26.35;;;23.58;;
15776;SDS011;7989;51.198;6.676;2024-03-06T09:03:05;26.42;;;23.73;;
15776;SDS011;7989;51.198;6.676;2024-03-06T09:05:32;27.02;;;22.33;;
15776;SDS011;7989;51.198;6.676;2024-03-06T09:08:00;25.38;;;23.00;;
15776;SDS011;7989;51.198;6.676;2024-03-06T09:10:26;25.98;;;23.30;;
15776;SDS011;7989;51.198;6.676;2024-03-06T09:12:53;26.08;;;23.67;;
15776;SDS011;7989;51.198;6.676;2024-03-06T09:15:21;26.38;;;23.95;;
15776;SDS011;7989;51.198;6.676;2024-03-06T09:17:49;25.45;;;23.05;;
15776;SDS011;7989;51.198;6.676;2024-03-06T09:20:16;25.80;;;23.33;;
15776;SDS011;7989;51.198;6.676;2024-03-06T09:22:43;24.52;;;22.13;;
15776;SDS011;7989;51.198;6.676;2024-03-06T09:25:10;25.75;;;23.35;;
15776;SDS011;7989;51.198;6.676;2024-03-06T09:27:38;24.75;;;22.25;;
15776;SDS011;7989;51.198;6.676;2024-03-06T09:30:06;25.67;;;22.30;;
15776;SDS011;7989;51.198;6.676;2024-03-06T09:32:35;25.52;;;22.95;;
15776;SDS011;7989;51.198;6.676;2024-03-06T09:35:03;24.00;;;21.80;;
15776;SDS011;7989;51.198;6.676;2024-03-06T09:37:30;24.08;;;21.40;;
15776;SDS011;7989;51.198;6.676;2024-03-06T09:39:57;24.52;;;22.15;;
15776;SDS011;7989;51.198;6.676;2024-03-06T09:42:24;24.58;;;22.38;;
15776;SDS011;7989;51.198;6.676;2024-03-06T09:44:52;24.65;;;22.30;;
15776;SDS011;7989;51.198;6.676;2024-03-06T09:47:19;23.23;;;20.77;;
15776;SDS011;7989;51.198;6.676;2024-03-06T09:49:51;24.52;;;21.98;;
15776;SDS011;7989;51.198;6.676;2024-03-06T09:52:19;24.05;;;21.45;;
15776;SDS011;7989;51.198;6.676;2024-03-06T09:54:47;20.67;;;18.73;;
15776;SDS011;7989;51.198;6.676;2024-03-06T09:57:14;23.83;;;21.63;;
15776;SDS011;7989;51.198;6.676;2024-03-06T09:59:41;25.30;;;22.70;;
15776;SDS011;7989;51.198;6.676;2024-03-06T10:02:12;24.42;;;21.92;;
15776;SDS011;7989;51.198;6.676;2024-03-06T10:04:56;21.33;;;19.33;;
15776;SDS011;7989;51.198;6.676;2024-03-06T10:07:23;22.60;;;20.35;;
15776;SDS011;7989;51.198;6.676;2024-03-06T10:09:51;21.70;;;19.55;;
15776;SDS011;7989;51.198;6.676;2024-03-06T10:12:18;22.92;;;20.73;;
15776;SDS011;7989;51.198;6.676;2024-03-06T10:14:48;22.33;;;20.30;;
15776;SDS011;7989;51.198;6.676;2024-03-06T10:17:18;25.30;;;22.83;;
15776;SDS011;7989;51.198;6.676;2024-03-06T10:19:47;27.83;;;24.88;;
15776;SDS011;7989;51.198;6.676;2024-03-06T10:22:18;26.17;;;23.63;;
15776;SDS011;7989;51.198;6.676;2024-03-06T10:24:45;27.02;;;24.33;;
15776;SDS011;7989;51.198;6.676;2024-03-06T10:27:14;29.52;;;25.55;;
15776;SDS011;7989;51.198;6.676;2024-03-06T10:29:42;30.80;;;25.08;;
15776;SDS011;7989;51.198;6.676;2024-03-06T10:32:09;25.08;;;22.52;;
15776;SDS011;7989;51.198;6.676;2024-03-06T10:34:36;26.08;;;23.63;;
15776;SDS011;7989;51.198;6.676;2024-03-06T10:37:04;30.98;;;27.73;;
15776;SDS011;7989;51.198;6.676;2024-03-06T10:39:33;28.50;;;25.77;;
15776;SDS011;7989;51.198;6.676;2024-03-06T10:42:02;33.63;;;30.20;;
15776;SDS011;7989;51.198;6.676;2024-03-06T10:44:30;32.95;;;29.38;;
15776;SDS011;7989;51.198;6.676;2024-03-06T10:47:00;31.85;;;28.63;;
15776;SDS011;7989;51.198;6.676;2024-03-06T10:49:28;30.50;;;27.25;;
15776;SDS011;7989;51.198;6.676;2024-03-06T10:51:57;27.70;;;24.95;;
15776;SDS011;7989;51.198;6.676;2024-03-06T10:54:26;25.77;;;23.30;;
15776;SDS011;7989;51.198;6.676;2024-03-06T10:56:55;24.40;;;22.00;;
15776;SDS011;7989;51.198;6.676;2024-03-06T10:59:24;23.15;;;20.90;;
15776;SDS011;7989;51.198;6.676;2024-03-06T11:01:53;24.52;;;22.05;;
15776;SDS011;7989;51.198;6.676;2024-03-06T11:04:21;23.58;;;21.27;;
15776;SDS011;7989;51.198;6.676;2024-03-06T11:06:50;24.33;;;22.02;;
15776;SDS011;7989;51.198;6.676;2024-03-06T11:09:17;21.10;;;19.05;;
15776;SDS011;7989;51.198;6.676;2024-03-06T11:11:47;20.95;;;18.88;;
15776;SDS011;7989;51.198;6.676;2024-03-06T11:14:17;21.88;;;19.77;;
15776;SDS011;7989;51.198;6.676;2024-03-06T11:16:56;18.77;;;17.08;;
15776;SDS011;7989;51.198;6.676;2024-03-06T11:19:28;19.50;;;17.77;;
15776;SDS011;7989;51.198;6.676;2024-03-06T11:21:56;18.92;;;17.02;;
15776;SDS011;7989;51.198;6.676;2024-03-06T11:24:23;18.77;;;17.08;;
15776;SDS011;7989;51.198;6.676;2024-03-06T11:26:57;18.17;;;16.50;;
15776;SDS011;7989;51.198;6.676;2024-03-06T11:29:28;23.15;;;21.05;;
15776;SDS011;7989;51.198;6.676;2024-03-06T11:32:17;20.00;;;18.13;;
15776;SDS011;7989;51.198;6.676;2024-03-06T11:34:44;22.52;;;20.45;;
15776;SDS011;7989;51.198;6.676;2024-03-06T11:37:11;21.52;;;19.38;;
15776;SDS011;7989;51.198;6.676;2024-03-06T11:39:38;20.85;;;19.05;;
15776;SDS011;7989;51.198;6.676;2024-03-06T11:42:06;21.50;;;19.50;;
15776;SDS011;7989;51.198;6.676;2024-03-06T11:44:35;20.75;;;18.95;;
15776;SDS011;7989;51.198;6.676;2024-03-06T11:47:03;24.08;;;21.80;;
15776;SDS011;7989;51.198;6.676;2024-03-06T11:49:34;24.00;;;21.65;;
15776;SDS011;7989;51.198;6.676;2024-03-06T11:52:07;23.13;;;21.02;;
15776;SDS011;7989;51.198;6.676;2024-03-06T11:54:35;21.73;;;19.63;;
15776;SDS011;7989;51.198;6.676;2024-03-06T11:57:02;21.73;;;19.73;;
15776;SDS011;7989;51.198;6.676;2024-03-06T11:59:31;24.98;;;22.70;;
15776;SDS011;7989;51.198;6.676;2024-03-06T12:01:59;21.63;;;19.42;;
15776;SDS011;7989;51.198;6.676;2024-03-06T12:04:27;21.35;;;19.40;;
15776;SDS011;7989;51.198;6.676;2024-03-06T12:06:57;20.60;;;18.67;;
15776;SDS011;7989;51.198;6.676;2024-03-06T12:09:25;20.95;;;19.05;;
15776;SDS011;7989;51.198;6.676;2024-03-06T12:11:52;21.13;;;19.13;;
15776;SDS011;7989;51.198;6.676;2024-03-06T12:14:20;21.45;;;19.45;;
15776;SDS011;7989;51.198;6.676;2024-03-06T12:16:54;22.02;;;19.90;;
15776;SDS011;7989;51.198;6.676;2024-03-06T12:19:21;22.00;;;20.05;;
15776;SDS011;7989;51.198;6.676;2024-03-06T12:21:49;22.10;;;19.95;;
15776;SDS011;7989;51.198;6.676;2024-03-06T12:24:18;22.30;;;20.27;;
15776;SDS011;7989;51.198;6.676;2024-03-06T12:26:44;22.40;;;20.40;;
15776;SDS011;7989;51.198;6.676;2024-03-06T12:29:16;24.13;;;21.77;;
15776;SDS011;7989;51.198;6.676;2024-03-06T12:31:45;22.75;;;20.50;;
15776;SDS011;7989;51.198;6.676;2024-03-06T12:34:13;23.20;;;20.83;;
15776;SDS011;7989;51.198;6.676;2024-03-06T12:36:40;24.15;;;20.48;;
15776;SDS011;7989;51.198;6.676;2024-03-06T12:39:07;21.77;;;19.70;;
15776;SDS011;7989;51.198;6.676;2024-03-06T12:41:39;23.27;;;21.23;;
15776;SDS011;7989;51.198;6.676;2024-03-06T12:44:06;21.98;;;19.98;;
15776;SDS011;7989;51.198;6.676;2024-03-06T12:46:33;23.35;;;21.10;;
15776;SDS011;7989;51.198;6.676;2024-03-06T12:49:00;22.50;;;20.48;;
15776;SDS011;7989;51.198;6.676;2024-03-06T12:51:27;23.17;;;21.05;;
15776;SDS011;7989;51.198;6.676;2024-03-06T12:54:00;26.10;;;23.77;;
15776;SDS011;7989;51.198;6.676;2024-03-06T12:56:28;25.00;;;22.30;;
15776;SDS011;7989;51.198;6.676;2024-03-06T12:58:56;26.83;;;24.15;;
15776;SDS011;7989;51.198;6.676;2024-03-06T13:01:26;27.08;;;24.33;;
15776;SDS011;7989;51.198;6.676;2024-03-06T13:03:53;26.65;;;23.95;;
15776;SDS011;7989;51.198;6.676;2024-03-06T13:06:21;24.38;;;21.80;;
15776;SDS011;7989;51.198;6.676;2024-03-06T13:08:48;23.38;;;21.02;;
15776;SDS011;7989;51.198;6.676;2024-03-06T13:11:14;23.98;;;21.65;;
15776;SDS011;7989;51.198;6.676;2024-03-06T13:13:41;23.92;;;21.33;;
15776;SDS011;7989;51.198;6.676;2024-03-06T13:16:09;28.48;;;25.77;;
15776;SDS011;7989;51.198;6.676;2024-03-06T13:18:36;25.85;;;23.42;;
15776;SDS011;7989;51.198;6.676;2024-03-06T13:21:03;22.98;;;20.67;;
15776;SDS011;7989;51.198;6.676;2024-03-06T13:23:30;25.95;;;22.80;;
15776;SDS011;7989;51.198;6.676;2024-03-06T13:25:57;25.13;;;22.73;;
15776;SDS011;7989;51.198;6.676;2024-03-06T13:28:25;22.92;;;20.73;;
15776;SDS011;7989;51.198;6.676;2024-03-06T13:30:52;21.98;;;19.77;;
15776;SDS011;7989;51.198;6.676;2024-03-06T13:33:20;21.92;;;19.75;;
15776;SDS011;7989;51.198;6.676;2024-03-06T13:35:48;21.15;;;18.95;;
15776;SDS011;7989;51.198;6.676;2024-03-06T13:38:15;19.42;;;17.52;;
15776;SDS011;7989;51.198;6.676;2024-03-06T13:40:42;20.45;;;18.38;;
15776;SDS011;7989;51.198;6.676;2024-03-06T13:43:09;23.13;;;20.88;;
15776;SDS011;7989;51.198;6.676;2024-03-06T13:45:36;21.20;;;18.98;;
15776;SDS011;7989;51.198;6.676;2024-03-06T13:48:03;22.85;;;20.55;;
15776;SDS011;7989;51.198;6.676;2024-03-06T13:50:41;19.60;;;17.13;;
15776;SDS011;7989;51.198;6.676;2024-03-06T13:53:09;18.30;;;16.40;;
15776;SDS011;7989;51.198;6.676;2024-03-06T13:55:36;20.98;;;18.98;;
15776;SDS011;7989;51.198;6.676;2024-03-06T13:58:03;17.52;;;15.75;;
15776;SDS011;7989;51.198;6.676;2024-03-06T14:00:30;16.63;;;14.98;;
15776;SDS011;7989;51.198;6.676;2024-03-06T14:02:57;16.27;;;13.60;;
15776;SDS011;7989;51.198;6.676;2024-03-06T14:05:23;11.32;;;10.27;;
15776;SDS011;7989;51.198;6.676;2024-03-06T14:07:52;8.32;;;7.55;;
15776;SDS011;7989;51.198;6.676;2024-03-06T14:10:20;7.78;;;7.07;;
15776;SDS011;7989;51.198;6.676;2024-03-06T14:12:49;8.73;;;7.88;;
15776;SDS011;7989;51.198;6.676;2024-03-06T14:15:17;8.45;;;7.57;;
15776;SDS011;7989;51.198;6.676;2024-03-06T14:17:44;4.82;;;4.43;;
15776;SDS011;7989;51.198;6.676;2024-03-06T14:20:11;9.15;;;8.35;;
15776;SDS011;7989;51.198;6.676;2024-03-06T14:22:38;6.57;;;5.97;;
15776;SDS011;7989;51.198;6.676;2024-03-06T14:25:06;6.03;;;5.43;;
15776;SDS011;7989;51.198;6.676;2024-03-06T14:27:33;6.55;;;5.60;;
15776;SDS011;7989;51.198;6.676;2024-03-06T14:30:01;6.10;;;5.60;;
15776;SDS011;7989;51.198;6.676;2024-03-06T14:32:28;6.55;;;5.95;;
15776;SDS011;7989;51.198;6.676;2024-03-06T14:34:55;7.10;;;6.45;;
15776;SDS011;7989;51.198;6.676;2024-03-06T14:37:22;10.15;;;8.23;;